createdAt,value
2023-03-26T00:01:27.802Z,99774.44
2023-03-26T00:05:29.255Z,99779.19
2023-03-26T00:09:30.725Z,99788.91
2023-03-26T00:13:33.167Z,99792.69
2023-03-26T00:17:34.646Z,99799.97
2023-03-26T00:21:37.183Z,99804.31
2023-03-26T00:25:41.384Z,99813.69
2023-03-26T00:29:43.066Z,99815.84
2023-03-26T00:33:44.689Z,99807.50
2023-03-26T00:37:46.635Z,99816.44
2023-03-26T00:41:48.109Z,99816.63
2023-03-26T00:45:52.178Z,99812.56
2023-03-26T00:49:54.402Z,99814.41
2023-03-26T00:53:57.144Z,99812.19
2023-03-26T00:57:58.720Z,99819.88
2023-03-26T01:02:00.418Z,99822.59
2023-03-26T01:06:10.918Z,99826.94
2023-03-26T01:10:14.747Z,99837.22
2023-03-26T01:14:20.172Z,99835.28
2023-03-26T01:18:26.290Z,99849.94
2023-03-26T01:22:27.813Z,99849.25
2023-03-26T01:26:55.612Z,99856.22
2023-03-26T01:31:10.724Z,99862.75
2023-03-26T01:35:28.229Z,99859.06
2023-03-26T01:39:53.172Z,99871.94
2023-03-26T01:44:02.100Z,99856.78
2023-03-26T01:48:04.734Z,99854.66
2023-03-26T01:52:16.408Z,99861.75
2023-03-26T01:56:31.561Z,99866.09
2023-03-26T02:00:41.380Z,99868.75
2023-03-26T02:05:05.987Z,99871.13
2023-03-26T02:09:11.342Z,99874.75
2023-03-26T02:13:13.467Z,99875.16
2023-03-26T02:17:16.697Z,99875.72
2023-03-26T02:21:21.293Z,99876.41
2023-03-26T02:25:23.999Z,99876.75
2023-03-26T02:29:26.818Z,99872.06
2023-03-26T02:33:30.319Z,99880.97
2023-03-26T02:37:33.792Z,99885.88
2023-03-26T02:41:43.607Z,99882.94
2023-03-26T02:45:46.863Z,99896.56
2023-03-26T02:50:08.868Z,99889.72
2023-03-26T02:54:26.325Z,99895.34
2023-03-26T02:58:38.442Z,99889.03
2023-03-26T03:02:40.651Z,99898.88
2023-03-26T03:07:00.888Z,99904.28
2023-03-26T03:11:17.928Z,99907.72
2023-03-26T03:15:23.301Z,99911.69
2023-03-26T03:19:24.801Z,99916.91
2023-03-26T03:23:26.476Z,99923.56
2023-03-26T03:27:39.263Z,99918.16
2023-03-26T03:31:45.635Z,99914.78
2023-03-26T03:36:00.721Z,99923.44
2023-03-26T03:40:07.474Z,99925.09
2023-03-26T03:44:10.119Z,99927.47
2023-03-26T03:48:11.584Z,99922.28
2023-03-26T03:52:18.153Z,99929.88
2023-03-26T03:56:24.001Z,99929.13
2023-03-26T04:00:46.260Z,99939.00
2023-03-26T04:05:19.773Z,99939.44
2023-03-26T04:09:24.550Z,99950.00
2023-03-26T04:13:28.999Z,99948.53
2023-03-26T04:17:47.530Z,99952.78
2023-03-26T04:21:51.801Z,99954.53
2023-03-26T04:25:56.223Z,99952.59
2023-03-26T04:30:15.421Z,99960.47
2023-03-26T04:34:23.956Z,99949.09
2023-03-26T04:38:52.022Z,99957.72
2023-03-26T04:42:59.888Z,99955.78
2023-03-26T04:47:36.773Z,99966.94
2023-03-26T04:51:41.809Z,99961.69
2023-03-26T04:56:04.064Z,99957.44
2023-03-26T05:00:32.100Z,99955.41
2023-03-26T05:04:36.702Z,99967.56
2023-03-26T05:08:38.723Z,99960.25
2023-03-26T05:12:41.559Z,99968.16
2023-03-26T05:16:48.971Z,99957.00
2023-03-26T05:20:50.625Z,99961.13
2023-03-26T05:24:52.462Z,99952.75
2023-03-26T05:28:54.167Z,99951.47
2023-03-26T05:32:59.803Z,99958.41
2023-03-26T05:37:06.815Z,99955.78
2023-03-26T05:41:26.990Z,99969.31
2023-03-26T05:45:28.912Z,99963.31
2023-03-26T05:49:32.110Z,99960.13
2023-03-26T05:53:34.286Z,99963.34
2023-03-26T05:58:01.628Z,99953.81
2023-03-26T06:02:22.256Z,99977.34
2023-03-26T06:06:53.995Z,99984.13
2023-03-26T06:11:04.372Z,99988.56
2023-03-26T06:15:11.041Z,99992.81
2023-03-26T06:19:21.251Z,100004.19
2023-03-26T06:23:41.299Z,99997.22
2023-03-26T06:27:53.628Z,100005.13
2023-03-26T06:32:20.510Z,100003.13
2023-03-26T06:36:33.234Z,100010.47
2023-03-26T06:40:34.695Z,100011.16
2023-03-26T06:44:55.153Z,100018.66
2023-03-26T06:49:08.732Z,100015.38
2023-03-26T06:53:16.796Z,100019.00
2023-03-26T06:57:37.800Z,100025.56
2023-03-26T07:02:02.018Z,100039.38
2023-03-26T07:06:21.938Z,100033.50
2023-03-26T07:10:42.105Z,100037.00
2023-03-26T07:15:11.288Z,100041.72
2023-03-26T07:19:40.395Z,100043.34
2023-03-26T07:23:42.118Z,100050.59
2023-03-26T07:28:33.372Z,100037.81
2023-03-26T07:32:52.323Z,100042.56
2023-03-26T07:37:44.064Z,100053.75
2023-03-26T07:42:41.750Z,100050.00
2023-03-26T07:47:49.469Z,100053.25
2023-03-26T07:51:57.526Z,100057.16
2023-03-26T07:56:58.005Z,100057.22
2023-03-26T08:01:29.016Z,100066.13
2023-03-26T08:05:40.579Z,100071.22
2023-03-26T08:09:56.817Z,100072.13
2023-03-26T08:14:27.650Z,100068.31
2023-03-26T08:18:59.441Z,100074.41
2023-03-26T08:23:27.680Z,100079.53
2023-03-26T08:27:43.496Z,100081.94
2023-03-26T08:31:48.336Z,100080.69
2023-03-26T08:35:50.075Z,100081.31
2023-03-26T08:39:51.630Z,100080.16
2023-03-26T08:44:05.867Z,100088.75
2023-03-26T08:48:34.079Z,100088.72
2023-03-26T08:53:02.685Z,100077.69
2023-03-26T08:57:40.790Z,100097.63
2023-03-26T09:02:08.688Z,100093.22
2023-03-26T09:06:26.145Z,100091.81
2023-03-26T09:10:46.243Z,100091.06
2023-03-26T09:15:12.504Z,100097.06
2023-03-26T09:19:37.398Z,100095.09
2023-03-26T09:23:49.602Z,100093.59
2023-03-26T09:28:06.167Z,100099.78
2023-03-26T09:32:22.904Z,100112.53
2023-03-26T09:36:40.744Z,100114.31
2023-03-26T09:40:52.949Z,100104.50
2023-03-26T09:45:31.928Z,100116.16
2023-03-26T09:49:51.676Z,100111.44
2023-03-26T09:54:18.475Z,100109.91
2023-03-26T09:58:48.461Z,100112.69
2023-03-26T10:03:28.837Z,100110.84
2023-03-26T10:08:01.404Z,100122.06
2023-03-26T10:12:15.691Z,100113.34
2023-03-26T10:16:35.632Z,100131.50
2023-03-26T10:20:59.071Z,100137.84
2023-03-26T10:25:28.751Z,100123.78
2023-03-26T10:30:07.742Z,100123.53
2023-03-26T10:34:45.876Z,100120.31
2023-03-26T10:39:07.373Z,100124.28
2023-03-26T10:43:24.071Z,100136.31
2023-03-26T10:47:48.092Z,100126.53
2023-03-26T10:52:02.084Z,100132.84
2023-03-26T10:56:23.165Z,100129.28
2023-03-26T11:00:28.948Z,100132.97
2023-03-26T11:04:42.792Z,100141.72
2023-03-26T11:08:59.365Z,100145.19
2023-03-26T11:13:15.981Z,100141.63
2023-03-26T11:17:40.627Z,100140.44
2023-03-26T11:21:51.990Z,100151.84
2023-03-26T11:26:16.548Z,100155.78
2023-03-26T11:30:29.718Z,100163.22
2023-03-26T11:34:38.602Z,100159.25
2023-03-26T11:38:47.403Z,100167.19
2023-03-26T11:42:58.930Z,100164.63
2023-03-26T11:47:04.429Z,100166.00
2023-03-26T11:51:08.967Z,100176.00
2023-03-26T11:55:14.486Z,100176.34
2023-03-26T11:59:28.833Z,100174.63
2023-03-26T12:03:30.361Z,100178.31
2023-03-26T12:07:34.393Z,100183.72
2023-03-26T12:11:36.165Z,100178.47
2023-03-26T12:15:43.028Z,100174.25
2023-03-26T12:19:45.265Z,100187.50
2023-03-26T12:24:06.026Z,100183.28
2023-03-26T12:28:15.571Z,100181.25
2023-03-26T12:32:17.062Z,100168.44
2023-03-26T12:36:26.521Z,100178.06
2023-03-26T12:40:34.190Z,100185.19
2023-03-26T12:44:58.910Z,100186.53
2023-03-26T12:49:08.609Z,100191.47
2023-03-26T12:53:27.358Z,100187.41
2023-03-26T12:57:42.218Z,100186.53
2023-03-26T13:02:01.139Z,100194.28
2023-03-26T13:06:48.556Z,100187.84
2023-03-26T13:11:23.575Z,100201.38
2023-03-26T13:15:59.291Z,100185.53
2023-03-26T13:20:15.630Z,100186.31
2023-03-26T13:24:47.978Z,100179.50
2023-03-26T13:28:56.220Z,100172.94
2023-03-26T13:33:25.638Z,100170.09
2023-03-26T13:37:29.952Z,100178.38
2023-03-26T13:41:45.706Z,100172.28
2023-03-26T13:46:00.679Z,100174.09
2023-03-26T13:50:06.047Z,100175.72
2023-03-26T13:54:16.303Z,100169.88
2023-03-26T13:58:34.904Z,100165.41
2023-03-26T14:02:40.597Z,100163.88
2023-03-26T14:06:57.052Z,100167.13
2023-03-26T14:11:10.876Z,100168.13
2023-03-26T14:15:18.425Z,100172.59
2023-03-26T14:19:49.989Z,100171.81
2023-03-26T14:24:23.421Z,100180.69
2023-03-26T14:28:54.711Z,100169.22
2023-03-26T14:33:12.515Z,100181.56
2023-03-26T14:37:32.948Z,100175.16
2023-03-26T14:41:46.254Z,100178.69
2023-03-26T14:46:16.897Z,100179.97
2023-03-26T14:50:26.522Z,100183.41
2023-03-26T14:54:32.156Z,100175.97
2023-03-26T14:58:55.025Z,100180.44
2023-03-26T15:03:18.456Z,100180.56
2023-03-26T15:07:37.171Z,100183.78
2023-03-26T15:12:12.430Z,100185.81
2023-03-26T15:16:52.274Z,100180.75
2023-03-26T15:21:25.992Z,100191.19
2023-03-26T15:25:57.865Z,100189.91
2023-03-26T15:30:29.401Z,100192.56
2023-03-26T15:34:30.905Z,100205.50
2023-03-26T15:39:00.860Z,100201.91
2023-03-26T15:43:16.573Z,100202.97
2023-03-26T15:47:36.764Z,100206.63
2023-03-26T15:51:53.716Z,100199.84
2023-03-26T15:56:25.605Z,100206.69
2023-03-26T16:00:30.764Z,100209.28
2023-03-26T16:05:21.209Z,100216.56
2023-03-26T16:09:38.796Z,100214.03
2023-03-26T16:13:50.597Z,100232.72
2023-03-26T16:18:11.670Z,100223.44
2023-03-26T16:22:35.386Z,100225.72
2023-03-26T16:26:44.655Z,100220.41
2023-03-26T16:31:37.350Z,100221.00
2023-03-26T16:36:18.327Z,100229.78
2023-03-26T16:40:27.863Z,100234.28
2023-03-26T16:44:56.506Z,100242.38
2023-03-26T16:49:10.458Z,100240.16
2023-03-26T16:53:23.200Z,100237.19
2023-03-26T16:57:28.244Z,100249.22
2023-03-26T17:02:20.865Z,100249.22
2023-03-26T17:07:03.337Z,100253.75
2023-03-26T17:11:15.746Z,100262.59
2023-03-26T17:15:41.825Z,100267.47
2023-03-26T17:20:09.416Z,100269.19
2023-03-26T17:24:27.169Z,100261.81
2023-03-26T17:29:13.177Z,100267.81
2023-03-26T17:33:29.428Z,100267.19
2023-03-26T17:37:40.969Z,100273.41
2023-03-26T17:42:13.047Z,100281.03
2023-03-26T17:46:33.096Z,100294.50
2023-03-26T17:50:45.816Z,100293.03
2023-03-26T17:54:50.778Z,100300.53
2023-03-26T17:59:00.882Z,100295.81
2023-03-26T18:03:29.548Z,100299.34
2023-03-26T18:07:57.957Z,100311.25
2023-03-26T18:12:37.666Z,100319.47
2023-03-26T18:17:01.291Z,100318.25
2023-03-26T18:21:46.433Z,100326.22
2023-03-26T18:26:32.457Z,100326.53
2023-03-26T18:30:46.889Z,100326.47
2023-03-26T18:34:58.214Z,100327.13
2023-03-26T18:39:00.203Z,100337.63
2023-03-26T18:43:01.953Z,100333.22
2023-03-26T18:47:07.208Z,100329.34
2023-03-26T18:51:10.068Z,100340.50
2023-03-26T18:55:14.293Z,100332.34
2023-03-26T18:59:27.900Z,100329.75
2023-03-26T19:03:35.495Z,100325.94
2023-03-26T19:07:37.786Z,100330.97
2023-03-26T19:11:41.231Z,100332.38
2023-03-26T19:15:46.566Z,100337.69
2023-03-26T19:19:49.390Z,100331.56
2023-03-26T19:23:52.490Z,100335.53
2023-03-26T19:27:54.456Z,100340.94
2023-03-26T19:32:14.514Z,100341.16
2023-03-26T19:36:21.002Z,100352.53
2023-03-26T19:40:30.103Z,100352.41
2023-03-26T19:44:32.051Z,100356.91
2023-03-26T19:51:18.597Z,100365.66
2023-03-26T19:53:21.989Z,100355.81
2023-03-26T19:57:23.635Z,100361.53
2023-03-26T20:01:27.770Z,100369.28
2023-03-26T20:05:33.288Z,100375.44
2023-03-26T20:09:35.075Z,100381.38
2023-03-26T20:19:12.744Z,100385.13
2023-03-26T20:24:45.123Z,100400.19
2023-03-26T20:34:53.052Z,100409.09
2023-03-26T20:38:54.491Z,100413.72
2023-03-26T20:42:56.072Z,100416.97
2023-03-26T20:46:58.911Z,100420.97
2023-03-26T20:51:01.454Z,100428.25
2023-03-26T20:55:03.313Z,100426.88
2023-03-26T20:59:10.895Z,100426.66
2023-03-26T21:03:15.640Z,100440.94
2023-03-26T21:07:18.679Z,100434.59
2023-03-26T21:11:45.834Z,100432.75
2023-03-26T21:15:47.729Z,100434.41
2023-03-26T21:19:50.065Z,100446.91
2023-03-26T21:24:09.817Z,100451.56
2023-03-26T21:28:41.996Z,100456.94
2023-03-26T21:32:45.994Z,100462.28
2023-03-26T21:36:48.338Z,100476.50
2023-03-26T21:44:55.962Z,100483.44
2023-03-26T21:48:57.830Z,100482.63
2023-03-26T21:52:59.792Z,100492.34
2023-03-26T21:57:22.893Z,100493.31
2023-03-26T22:01:58.038Z,100500.34
2023-03-26T22:06:02.939Z,100497.75
2023-03-26T22:10:05.104Z,100502.97
2023-03-26T22:14:08.415Z,100504.69
2023-03-26T22:18:10.238Z,100519.69
2023-03-26T22:22:12.413Z,100518.84
2023-03-26T22:26:21.782Z,100523.31
2023-03-26T22:30:23.860Z,100515.38
2023-03-26T22:34:25.925Z,100525.00
2023-03-26T22:38:27.467Z,100538.16
2023-03-26T22:42:28.968Z,100530.34
2023-03-26T22:46:31.128Z,100539.13
2023-03-26T22:50:33.024Z,100549.69
2023-03-26T22:54:36.436Z,100547.91
2023-03-26T22:58:38.167Z,100550.56
2023-03-26T23:02:40.997Z,100554.09
2023-03-26T23:06:42.937Z,100562.00
2023-03-26T23:10:45.432Z,100564.59
2023-03-26T23:14:52.156Z,100572.53
2023-03-26T23:18:53.633Z,100578.69
2023-03-26T23:22:55.706Z,100586.63
2023-03-26T23:27:17.171Z,100585.69
2023-03-26T23:31:44.164Z,100583.06
2023-03-26T23:36:10.776Z,100585.72
2023-03-26T23:40:33.262Z,100583.97
2023-03-26T23:44:56.375Z,100591.84
2023-03-26T23:49:18.064Z,100593.63
2023-03-26T23:53:39.487Z,100608.56
2023-03-26T23:58:01.779Z,100612.09
